sensor_id;sensor_type;location;lat;lon;timestamp;pressure;altitude;pressure_sealevel;temperature
41940;BMP180;23057;48.554;14.454;2023-06-22T00:00:11;94217.00;;;25.80
41940;BMP180;23057;48.554;14.454;2023-06-22T00:02:42;94208.00;;;25.90
41940;BMP180;23057;48.554;14.454;2023-06-22T00:05:13;94212.00;;;25.90
41940;BMP180;23057;48.554;14.454;2023-06-22T00:07:43;94210.00;;;25.90
41940;BMP180;23057;48.554;14.454;2023-06-22T00:10:14;94213.00;;;25.80
41940;BMP180;23057;48.554;14.454;2023-06-22T00:12:45;94212.00;;;25.70
41940;BMP180;23057;48.554;14.454;2023-06-22T00:15:15;94204.00;;;25.60
41940;BMP180;23057;48.554;14.454;2023-06-22T00:17:46;94197.00;;;25.50
41940;BMP180;23057;48.554;14.454;2023-06-22T00:20:17;94193.00;;;25.40
41940;BMP180;23057;48.554;14.454;2023-06-22T00:22:48;94180.00;;;25.30
41940;BMP180;23057;48.554;14.454;2023-06-22T00:25:19;94195.00;;;25.30
41940;BMP180;23057;48.554;14.454;2023-06-22T00:27:50;94191.00;;;25.30
41940;BMP180;23057;48.554;14.454;2023-06-22T00:30:21;94201.00;;;25.30
41940;BMP180;23057;48.554;14.454;2023-06-22T00:32:52;94198.00;;;25.20
41940;BMP180;23057;48.554;14.454;2023-06-22T00:35:23;94193.00;;;25.20
41940;BMP180;23057;48.554;14.454;2023-06-22T00:37:53;94188.00;;;25.10
41940;BMP180;23057;48.554;14.454;2023-06-22T00:40:31;94189.00;;;25.10
41940;BMP180;23057;48.554;14.454;2023-06-22T00:43:05;94185.00;;;25.10
41940;BMP180;23057;48.554;14.454;2023-06-22T00:45:36;94183.00;;;25.00
41940;BMP180;23057;48.554;14.454;2023-06-22T00:48:07;94167.00;;;25.00
41940;BMP180;23057;48.554;14.454;2023-06-22T00:50:39;94179.00;;;25.00
41940;BMP180;23057;48.554;14.454;2023-06-22T00:53:10;94171.00;;;25.10
41940;BMP180;23057;48.554;14.454;2023-06-22T00:55:42;94171.00;;;25.10
41940;BMP180;23057;48.554;14.454;2023-06-22T00:58:15;94172.00;;;25.10
41940;BMP180;23057;48.554;14.454;2023-06-22T01:00:46;94181.00;;;25.10
41940;BMP180;23057;48.554;14.454;2023-06-22T01:03:17;94179.00;;;25.00
41940;BMP180;23057;48.554;14.454;2023-06-22T01:05:49;94166.00;;;25.00
41940;BMP180;23057;48.554;14.454;2023-06-22T01:11:26;94163.00;;;25.00
41940;BMP180;23057;48.554;14.454;2023-06-22T01:14:20;94149.00;;;24.80
41940;BMP180;23057;48.554;14.454;2023-06-22T01:16:54;94153.00;;;24.80
41940;BMP180;23057;48.554;14.454;2023-06-22T01:19:48;94159.00;;;24.70
41940;BMP180;23057;48.554;14.454;2023-06-22T01:22:30;94152.00;;;24.60
41940;BMP180;23057;48.554;14.454;2023-06-22T01:25:19;94150.00;;;24.60
41940;BMP180;23057;48.554;14.454;2023-06-22T01:28:05;94150.00;;;24.60
41940;BMP180;23057;48.554;14.454;2023-06-22T01:30:45;94138.00;;;24.50
41940;BMP180;23057;48.554;14.454;2023-06-22T01:33:17;94136.00;;;24.50
41940;BMP180;23057;48.554;14.454;2023-06-22T01:35:48;94129.00;;;24.50
41940;BMP180;23057;48.554;14.454;2023-06-22T01:38:19;94127.00;;;24.50
41940;BMP180;23057;48.554;14.454;2023-06-22T01:40:51;94133.00;;;24.40
41940;BMP180;23057;48.554;14.454;2023-06-22T01:43:24;94140.00;;;24.30
41940;BMP180;23057;48.554;14.454;2023-06-22T01:46:00;94138.00;;;24.30
41940;BMP180;23057;48.554;14.454;2023-06-22T01:48:32;94139.00;;;24.20
41940;BMP180;23057;48.554;14.454;2023-06-22T01:51:03;94135.00;;;24.20
41940;BMP180;23057;48.554;14.454;2023-06-22T01:53:34;94145.00;;;24.20
41940;BMP180;23057;48.554;14.454;2023-06-22T01:56:05;94150.00;;;24.10
41940;BMP180;23057;48.554;14.454;2023-06-22T01:58:40;94151.00;;;24.10
41940;BMP180;23057;48.554;14.454;2023-06-22T02:01:22;94153.00;;;24.10
41940;BMP180;23057;48.554;14.454;2023-06-22T02:04:06;94145.00;;;24.00
41940;BMP180;23057;48.554;14.454;2023-06-22T02:06:43;94139.00;;;24.00
41940;BMP180;23057;48.554;14.454;2023-06-22T02:09:20;94124.00;;;24.00
41940;BMP180;23057;48.554;14.454;2023-06-22T02:11:53;94121.00;;;23.90
41940;BMP180;23057;48.554;14.454;2023-06-22T02:14:27;94116.00;;;23.90
41940;BMP180;23057;48.554;14.454;2023-06-22T02:16:59;94113.00;;;23.90
41940;BMP180;23057;48.554;14.454;2023-06-22T02:19:30;94111.00;;;23.90
41940;BMP180;23057;48.554;14.454;2023-06-22T02:22:04;94114.00;;;23.90
41940;BMP180;23057;48.554;14.454;2023-06-22T02:24:35;94115.00;;;23.90
41940;BMP180;23057;48.554;14.454;2023-06-22T02:27:06;94124.00;;;23.90
41940;BMP180;23057;48.554;14.454;2023-06-22T02:29:37;94115.00;;;23.80
41940;BMP180;23057;48.554;14.454;2023-06-22T02:32:08;94112.00;;;23.80
41940;BMP180;23057;48.554;14.454;2023-06-22T02:34:39;94112.00;;;23.70
41940;BMP180;23057;48.554;14.454;2023-06-22T02:37:09;94104.00;;;23.70
41940;BMP180;23057;48.554;14.454;2023-06-22T02:39:41;94090.00;;;23.60
41940;BMP180;23057;48.554;14.454;2023-06-22T02:42:12;94088.00;;;23.60
41940;BMP180;23057;48.554;14.454;2023-06-22T02:44:42;94089.00;;;23.50
41940;BMP180;23057;48.554;14.454;2023-06-22T02:47:13;94078.00;;;23.60
41940;BMP180;23057;48.554;14.454;2023-06-22T02:49:44;94080.00;;;23.60
41940;BMP180;23057;48.554;14.454;2023-06-22T02:52:16;94075.00;;;23.50
41940;BMP180;23057;48.554;14.454;2023-06-22T02:54:47;94078.00;;;23.50
41940;BMP180;23057;48.554;14.454;2023-06-22T02:57:17;94095.00;;;23.40
41940;BMP180;23057;48.554;14.454;2023-06-22T02:59:48;94092.00;;;23.30
41940;BMP180;23057;48.554;14.454;2023-06-22T03:02:19;94098.00;;;23.20
41940;BMP180;23057;48.554;14.454;2023-06-22T03:04:52;94103.00;;;23.00
41940;BMP180;23057;48.554;14.454;2023-06-22T03:07:24;94099.00;;;23.00
41940;BMP180;23057;48.554;14.454;2023-06-22T03:09:54;94104.00;;;23.00
41940;BMP180;23057;48.554;14.454;2023-06-22T03:12:25;94100.00;;;23.00
41940;BMP180;23057;48.554;14.454;2023-06-22T03:14:56;94099.00;;;23.00
41940;BMP180;23057;48.554;14.454;2023-06-22T03:17:26;94097.00;;;22.90
41940;BMP180;23057;48.554;14.454;2023-06-22T03:19:57;94105.00;;;22.90
41940;BMP180;23057;48.554;14.454;2023-06-22T03:22:28;94089.00;;;22.90
41940;BMP180;23057;48.554;14.454;2023-06-22T03:24:58;94102.00;;;22.90
41940;BMP180;23057;48.554;14.454;2023-06-22T03:27:29;94105.00;;;22.90
41940;BMP180;23057;48.554;14.454;2023-06-22T03:30:00;94099.00;;;22.90
41940;BMP180;23057;48.554;14.454;2023-06-22T03:32:31;94095.00;;;22.90
41940;BMP180;23057;48.554;14.454;2023-06-22T03:35:02;94106.00;;;23.00
41940;BMP180;23057;48.554;14.454;2023-06-22T03:37:33;94103.00;;;23.00
41940;BMP180;23057;48.554;14.454;2023-06-22T03:40:04;94102.00;;;23.10
41940;BMP180;23057;48.554;14.454;2023-06-22T03:42:35;94106.00;;;23.10
41940;BMP180;23057;48.554;14.454;2023-06-22T03:45:07;94113.00;;;23.20
41940;BMP180;23057;48.554;14.454;2023-06-22T03:47:38;94099.00;;;23.30
41940;BMP180;23057;48.554;14.454;2023-06-22T03:50:09;94115.00;;;23.40
41940;BMP180;23057;48.554;14.454;2023-06-22T03:52:40;94112.00;;;23.60
41940;BMP180;23057;48.554;14.454;2023-06-22T03:55:11;94107.00;;;23.70
41940;BMP180;23057;48.554;14.454;2023-06-22T03:57:41;94113.00;;;23.90
41940;BMP180;23057;48.554;14.454;2023-06-22T04:00:13;94102.00;;;24.00
41940;BMP180;23057;48.554;14.454;2023-06-22T04:02:46;94104.00;;;24.20
41940;BMP180;23057;48.554;14.454;2023-06-22T04:05:16;94103.00;;;24.30
41940;BMP180;23057;48.554;14.454;2023-06-22T04:07:50;94102.00;;;24.40
41940;BMP180;23057;48.554;14.454;2023-06-22T04:10:20;94112.00;;;24.50
41940;BMP180;23057;48.554;14.454;2023-06-22T04:12:51;94110.00;;;24.50
41940;BMP180;23057;48.554;14.454;2023-06-22T04:15:22;94110.00;;;24.60
41940;BMP180;23057;48.554;14.454;2023-06-22T04:17:54;94107.00;;;24.70
41940;BMP180;23057;48.554;14.454;2023-06-22T04:20:26;94111.00;;;24.90
41940;BMP180;23057;48.554;14.454;2023-06-22T04:22:57;94102.00;;;25.00
41940;BMP180;23057;48.554;14.454;2023-06-22T04:25:27;94101.00;;;25.10
41940;BMP180;23057;48.554;14.454;2023-06-22T04:27:58;94102.00;;;25.40
41940;BMP180;23057;48.554;14.454;2023-06-22T04:30:29;94092.00;;;25.50
41940;BMP180;23057;48.554;14.454;2023-06-22T04:33:02;94092.00;;;25.60
41940;BMP180;23057;48.554;14.454;2023-06-22T04:35:32;94086.00;;;25.80
41940;BMP180;23057;48.554;14.454;2023-06-22T04:38:03;94092.00;;;25.90
41940;BMP180;23057;48.554;14.454;2023-06-22T04:40:34;94089.00;;;26.10
41940;BMP180;23057;48.554;14.454;2023-06-22T04:43:05;94086.00;;;26.30
41940;BMP180;23057;48.554;14.454;2023-06-22T04:45:36;94076.00;;;26.50
41940;BMP180;23057;48.554;14.454;2023-06-22T04:48:08;94080.00;;;26.80
41940;BMP180;23057;48.554;14.454;2023-06-22T04:50:40;94075.00;;;26.90
41940;BMP180;23057;48.554;14.454;2023-06-22T04:53:10;94073.00;;;27.10
41940;BMP180;23057;48.554;14.454;2023-06-22T04:55:43;94067.00;;;27.30
41940;BMP180;23057;48.554;14.454;2023-06-22T04:58:16;94071.00;;;27.50
41940;BMP180;23057;48.554;14.454;2023-06-22T05:00:50;94060.00;;;27.70
41940;BMP180;23057;48.554;14.454;2023-06-22T05:03:22;94060.00;;;27.70
41940;BMP180;23057;48.554;14.454;2023-06-22T05:05:53;94064.00;;;27.90
41940;BMP180;23057;48.554;14.454;2023-06-22T05:08:24;94070.00;;;28.10
41940;BMP180;23057;48.554;14.454;2023-06-22T05:10:57;94064.00;;;28.20
41940;BMP180;23057;48.554;14.454;2023-06-22T05:13:27;94066.00;;;28.40
41940;BMP180;23057;48.554;14.454;2023-06-22T05:15:58;94060.00;;;28.40
41940;BMP180;23057;48.554;14.454;2023-06-22T05:18:32;94065.00;;;28.50
41940;BMP180;23057;48.554;14.454;2023-06-22T05:21:03;94062.00;;;28.60
41940;BMP180;23057;48.554;14.454;2023-06-22T05:23:33;94062.00;;;28.70
41940;BMP180;23057;48.554;14.454;2023-06-22T05:26:04;94067.00;;;28.80
41940;BMP180;23057;48.554;14.454;2023-06-22T05:28:35;94062.00;;;28.80
41940;BMP180;23057;48.554;14.454;2023-06-22T05:31:06;94054.00;;;28.90
41940;BMP180;23057;48.554;14.454;2023-06-22T05:33:36;94050.00;;;28.90
41940;BMP180;23057;48.554;14.454;2023-06-22T05:36:07;94043.00;;;29.00
41940;BMP180;23057;48.554;14.454;2023-06-22T05:38:39;94054.00;;;29.20
41940;BMP180;23057;48.554;14.454;2023-06-22T05:41:10;94054.00;;;29.20
41940;BMP180;23057;48.554;14.454;2023-06-22T05:43:41;94057.00;;;29.20
41940;BMP180;23057;48.554;14.454;2023-06-22T05:46:12;94052.00;;;29.20
41940;BMP180;23057;48.554;14.454;2023-06-22T05:48:43;94053.00;;;29.30
41940;BMP180;23057;48.554;14.454;2023-06-22T05:51:13;94065.00;;;29.40
41940;BMP180;23057;48.554;14.454;2023-06-22T05:53:44;94067.00;;;29.60
41940;BMP180;23057;48.554;14.454;2023-06-22T05:56:17;94056.00;;;29.60
41940;BMP180;23057;48.554;14.454;2023-06-22T05:58:47;94050.00;;;29.60
41940;BMP180;23057;48.554;14.454;2023-06-22T06:01:18;94052.00;;;29.60
41940;BMP180;23057;48.554;14.454;2023-06-22T06:03:49;94051.00;;;29.70
41940;BMP180;23057;48.554;14.454;2023-06-22T06:06:20;94056.00;;;29.80
41940;BMP180;23057;48.554;14.454;2023-06-22T06:08:51;94059.00;;;29.80
41940;BMP180;23057;48.554;14.454;2023-06-22T06:11:23;94053.00;;;29.90
41940;BMP180;23057;48.554;14.454;2023-06-22T06:13:53;94051.00;;;30.00
41940;BMP180;23057;48.554;14.454;2023-06-22T06:16:24;94057.00;;;30.10
41940;BMP180;23057;48.554;14.454;2023-06-22T06:18:55;94059.00;;;30.30
41940;BMP180;23057;48.554;14.454;2023-06-22T06:21:26;94060.00;;;30.50
41940;BMP180;23057;48.554;14.454;2023-06-22T06:23:57;94063.00;;;30.90
41940;BMP180;23057;48.554;14.454;2023-06-22T06:26:27;94060.00;;;31.20
41940;BMP180;23057;48.554;14.454;2023-06-22T06:29:00;94063.00;;;31.40
41940;BMP180;23057;48.554;14.454;2023-06-22T06:31:30;94063.00;;;31.50
41940;BMP180;23057;48.554;14.454;2023-06-22T06:34:01;94069.00;;;31.70
41940;BMP180;23057;48.554;14.454;2023-06-22T06:36:32;94071.00;;;31.80
41940;BMP180;23057;48.554;14.454;2023-06-22T06:39:03;94064.00;;;32.00
41940;BMP180;23057;48.554;14.454;2023-06-22T06:41:34;94066.00;;;32.20
41940;BMP180;23057;48.554;14.454;2023-06-22T06:44:05;94065.00;;;32.30
41940;BMP180;23057;48.554;14.454;2023-06-22T06:46:35;94065.00;;;32.40
41940;BMP180;23057;48.554;14.454;2023-06-22T06:49:06;94066.00;;;32.60
41940;BMP180;23057;48.554;14.454;2023-06-22T06:51:37;94056.00;;;32.70
41940;BMP180;23057;48.554;14.454;2023-06-22T06:54:07;94062.00;;;32.90
41940;BMP180;23057;48.554;14.454;2023-06-22T06:56:38;94052.00;;;33.00
41940;BMP180;23057;48.554;14.454;2023-06-22T06:59:09;94051.00;;;33.20
41940;BMP180;23057;48.554;14.454;2023-06-22T07:01:39;94045.00;;;33.40
41940;BMP180;23057;48.554;14.454;2023-06-22T07:04:10;94048.00;;;33.50
41940;BMP180;23057;48.554;14.454;2023-06-22T07:06:41;94037.00;;;33.60
41940;BMP180;23057;48.554;14.454;2023-06-22T07:09:13;94039.00;;;33.80
41940;BMP180;23057;48.554;14.454;2023-06-22T07:11:43;94044.00;;;33.90
41940;BMP180;23057;48.554;14.454;2023-06-22T07:14:14;94045.00;;;34.00
41940;BMP180;23057;48.554;14.454;2023-06-22T07:16:45;94040.00;;;34.00
41940;BMP180;23057;48.554;14.454;2023-06-22T07:19:16;94036.00;;;34.00
41940;BMP180;23057;48.554;14.454;2023-06-22T07:21:46;94040.00;;;33.90
41940;BMP180;23057;48.554;14.454;2023-06-22T07:24:17;94033.00;;;34.00
41940;BMP180;23057;48.554;14.454;2023-06-22T07:26:50;94033.00;;;34.00
41940;BMP180;23057;48.554;14.454;2023-06-22T07:29:22;94030.00;;;34.00
41940;BMP180;23057;48.554;14.454;2023-06-22T07:31:53;94030.00;;;33.90
41940;BMP180;23057;48.554;14.454;2023-06-22T07:34:24;94033.00;;;33.80
41940;BMP180;23057;48.554;14.454;2023-06-22T07:36:55;94031.00;;;33.70
41940;BMP180;23057;48.554;14.454;2023-06-22T07:39:26;94031.00;;;33.60
41940;BMP180;23057;48.554;14.454;2023-06-22T07:41:57;94023.00;;;33.70
41940;BMP180;23057;48.554;14.454;2023-06-22T07:44:27;94023.00;;;33.80
41940;BMP180;23057;48.554;14.454;2023-06-22T07:46:58;94016.00;;;33.80
41940;BMP180;23057;48.554;14.454;2023-06-22T07:49:29;94023.00;;;33.80
41940;BMP180;23057;48.554;14.454;2023-06-22T07:51:59;94021.00;;;33.80
41940;BMP180;23057;48.554;14.454;2023-06-22T07:54:31;94022.00;;;33.80
41940;BMP180;23057;48.554;14.454;2023-06-22T07:57:02;94021.00;;;33.80
41940;BMP180;23057;48.554;14.454;2023-06-22T07:59:33;94024.00;;;33.80
41940;BMP180;23057;48.554;14.454;2023-06-22T08:02:05;94024.00;;;33.90
41940;BMP180;23057;48.554;14.454;2023-06-22T08:04:35;94019.00;;;33.90
41940;BMP180;23057;48.554;14.454;2023-06-22T08:07:06;94018.00;;;33.90
41940;BMP180;23057;48.554;14.454;2023-06-22T08:09:38;94013.00;;;33.90
41940;BMP180;23057;48.554;14.454;2023-06-22T08:12:09;94016.00;;;34.00
41940;BMP180;23057;48.554;14.454;2023-06-22T08:14:42;94018.00;;;34.00
41940;BMP180;23057;48.554;14.454;2023-06-22T08:17:14;94022.00;;;34.00
41940;BMP180;23057;48.554;14.454;2023-06-22T08:19:45;94017.00;;;34.00
41940;BMP180;23057;48.554;14.454;2023-06-22T08:22:16;94024.00;;;34.00
41940;BMP180;23057;48.554;14.454;2023-06-22T08:24:48;94018.00;;;34.00
41940;BMP180;23057;48.554;14.454;2023-06-22T08:27:19;94014.00;;;34.10
41940;BMP180;23057;48.554;14.454;2023-06-22T08:29:51;94017.00;;;34.20
41940;BMP180;23057;48.554;14.454;2023-06-22T08:32:28;94017.00;;;34.30
41940;BMP180;23057;48.554;14.454;2023-06-22T08:34:59;94018.00;;;34.20
41940;BMP180;23057;48.554;14.454;2023-06-22T08:37:30;94016.00;;;34.30
41940;BMP180;23057;48.554;14.454;2023-06-22T08:40:03;94007.00;;;34.30
41940;BMP180;23057;48.554;14.454;2023-06-22T08:42:40;94010.00;;;34.30
41940;BMP180;23057;48.554;14.454;2023-06-22T08:45:12;94009.00;;;34.30
41940;BMP180;23057;48.554;14.454;2023-06-22T08:47:43;94010.00;;;34.30
41940;BMP180;23057;48.554;14.454;2023-06-22T08:50:14;94008.00;;;34.40
41940;BMP180;23057;48.554;14.454;2023-06-22T08:52:45;94010.00;;;34.40
41940;BMP180;23057;48.554;14.454;2023-06-22T08:55:17;94009.00;;;34.50
41940;BMP180;23057;48.554;14.454;2023-06-22T08:57:48;94018.00;;;34.50
41940;BMP180;23057;48.554;14.454;2023-06-22T09:00:19;94010.00;;;34.60
41940;BMP180;23057;48.554;14.454;2023-06-22T09:02:50;94007.00;;;34.60
41940;BMP180;23057;48.554;14.454;2023-06-22T09:05:21;94006.00;;;34.60
41940;BMP180;23057;48.554;14.454;2023-06-22T09:07:52;93997.00;;;34.60
41940;BMP180;23057;48.554;14.454;2023-06-22T09:10:25;93993.00;;;34.70
41940;BMP180;23057;48.554;14.454;2023-06-22T09:12:57;93997.00;;;34.70
41940;BMP180;23057;48.554;14.454;2023-06-22T09:15:28;93996.00;;;34.80
41940;BMP180;23057;48.554;14.454;2023-06-22T09:17:59;93999.00;;;34.90
41940;BMP180;23057;48.554;14.454;2023-06-22T09:20:29;93996.00;;;35.10
41940;BMP180;23057;48.554;14.454;2023-06-22T09:23:00;94004.00;;;35.20
41940;BMP180;23057;48.554;14.454;2023-06-22T09:25:31;93996.00;;;35.30
41940;BMP180;23057;48.554;14.454;2023-06-22T09:28:02;93994.00;;;35.30
41940;BMP180;23057;48.554;14.454;2023-06-22T09:30:33;93999.00;;;35.40
41940;BMP180;23057;48.554;14.454;2023-06-22T09:33:04;94000.00;;;35.50
41940;BMP180;23057;48.554;14.454;2023-06-22T09:35:34;93993.00;;;35.70
41940;BMP180;23057;48.554;14.454;2023-06-22T09:38:05;94002.00;;;35.90
41940;BMP180;23057;48.554;14.454;2023-06-22T09:40:36;93989.00;;;36.00
41940;BMP180;23057;48.554;14.454;2023-06-22T09:43:10;93987.00;;;36.10
41940;BMP180;23057;48.554;14.454;2023-06-22T09:45:42;93996.00;;;36.20
41940;BMP180;23057;48.554;14.454;2023-06-22T09:48:12;93983.00;;;36.40
41940;BMP180;23057;48.554;14.454;2023-06-22T09:50:43;93989.00;;;36.60
41940;BMP180;23057;48.554;14.454;2023-06-22T09:53:14;93986.00;;;36.80
41940;BMP180;23057;48.554;14.454;2023-06-22T09:55:45;93987.00;;;36.90
41940;BMP180;23057;48.554;14.454;2023-06-22T09:58:15;93979.00;;;37.10
41940;BMP180;23057;48.554;14.454;2023-06-22T10:00:46;93981.00;;;37.20
41940;BMP180;23057;48.554;14.454;2023-06-22T10:03:17;93977.00;;;37.20
41940;BMP180;23057;48.554;14.454;2023-06-22T10:05:47;93981.00;;;37.10
41940;BMP180;23057;48.554;14.454;2023-06-22T10:08:18;93983.00;;;37.30
41940;BMP180;23057;48.554;14.454;2023-06-22T10:10:49;93974.00;;;37.50
41940;BMP180;23057;48.554;14.454;2023-06-22T10:13:20;93972.00;;;37.60
41940;BMP180;23057;48.554;14.454;2023-06-22T10:15:51;93971.00;;;37.80
41940;BMP180;23057;48.554;14.454;2023-06-22T10:18:22;93981.00;;;38.00
41940;BMP180;23057;48.554;14.454;2023-06-22T10:20:53;93971.00;;;38.20
41940;BMP180;23057;48.554;14.454;2023-06-22T10:23:23;93982.00;;;38.30
41940;BMP180;23057;48.554;14.454;2023-06-22T10:25:54;93980.00;;;38.40
41940;BMP180;23057;48.554;14.454;2023-06-22T10:28:27;93979.00;;;38.40
41940;BMP180;23057;48.554;14.454;2023-06-22T10:30:58;93990.00;;;38.50
41940;BMP180;23057;48.554;14.454;2023-06-22T10:33:28;93972.00;;;38.70
41940;BMP180;23057;48.554;14.454;2023-06-22T10:35:59;93976.00;;;38.70
41940;BMP180;23057;48.554;14.454;2023-06-22T10:38:30;93984.00;;;38.70
41940;BMP180;23057;48.554;14.454;2023-06-22T10:41:00;93983.00;;;38.80
41940;BMP180;23057;48.554;14.454;2023-06-22T10:43:31;93975.00;;;38.80
41940;BMP180;23057;48.554;14.454;2023-06-22T10:46:02;93972.00;;;38.80
41940;BMP180;23057;48.554;14.454;2023-06-22T10:48:33;93975.00;;;38.90
41940;BMP180;23057;48.554;14.454;2023-06-22T10:51:04;93976.00;;;39.00
41940;BMP180;23057;48.554;14.454;2023-06-22T10:53:35;93979.00;;;38.80
41940;BMP180;23057;48.554;14.454;2023-06-22T10:56:05;93971.00;;;38.70
41940;BMP180;23057;48.554;14.454;2023-06-22T10:58:36;93973.00;;;38.80
41940;BMP180;23057;48.554;14.454;2023-06-22T11:01:07;93970.00;;;38.80
41940;BMP180;23057;48.554;14.454;2023-06-22T11:03:38;93972.00;;;38.90
41940;BMP180;23057;48.554;14.454;2023-06-22T11:06:08;93975.00;;;38.90
41940;BMP180;23057;48.554;14.454;2023-06-22T11:08:39;93967.00;;;38.90
41940;BMP180;23057;48.554;14.454;2023-06-22T11:11:10;93970.00;;;39.00
41940;BMP180;23057;48.554;14.454;2023-06-22T11:13:40;93973.00;;;38.90
41940;BMP180;23057;48.554;14.454;2023-06-22T11:16:11;93970.00;;;38.90
41940;BMP180;23057;48.554;14.454;2023-06-22T11:18:42;93960.00;;;38.70
41940;BMP180;23057;48.554;14.454;2023-06-22T11:21:12;93962.00;;;38.60
41940;BMP180;23057;48.554;14.454;2023-06-22T11:23:44;93952.00;;;38.60
41940;BMP180;23057;48.554;14.454;2023-06-22T11:26:15;93950.00;;;38.70
41940;BMP180;23057;48.554;14.454;2023-06-22T11:28:46;93953.00;;;38.70
41940;BMP180;23057;48.554;14.454;2023-06-22T11:31:18;93960.00;;;38.70
41940;BMP180;23057;48.554;14.454;2023-06-22T11:33:49;93951.00;;;38.70
41940;BMP180;23057;48.554;14.454;2023-06-22T11:36:20;93946.00;;;38.80
41940;BMP180;23057;48.554;14.454;2023-06-22T11:38:50;93948.00;;;38.80
41940;BMP180;23057;48.554;14.454;2023-06-22T11:41:22;93942.00;;;38.80
41940;BMP180;23057;48.554;14.454;2023-06-22T11:43:52;93950.00;;;38.90
41940;BMP180;23057;48.554;14.454;2023-06-22T11:46:23;93947.00;;;38.90
41940;BMP180;23057;48.554;14.454;2023-06-22T11:48:54;93952.00;;;38.90
41940;BMP180;23057;48.554;14.454;2023-06-22T11:51:25;93938.00;;;39.00
41940;BMP180;23057;48.554;14.454;2023-06-22T11:53:55;93942.00;;;39.00
41940;BMP180;23057;48.554;14.454;2023-06-22T11:56:26;93932.00;;;38.90
41940;BMP180;23057;48.554;14.454;2023-06-22T11:58:58;93927.00;;;38.90
41940;BMP180;23057;48.554;14.454;2023-06-22T12:01:28;93930.00;;;39.00
41940;BMP180;23057;48.554;14.454;2023-06-22T12:03:59;93933.00;;;39.00
41940;BMP180;23057;48.554;14.454;2023-06-22T12:06:30;93927.00;;;38.90
41940;BMP180;23057;48.554;14.454;2023-06-22T12:09:01;93928.00;;;38.90
41940;BMP180;23057;48.554;14.454;2023-06-22T12:11:34;93919.00;;;38.90
41940;BMP180;23057;48.554;14.454;2023-06-22T12:14:05;93915.00;;;38.80
41940;BMP180;23057;48.554;14.454;2023-06-22T12:16:36;93915.00;;;38.70
41940;BMP180;23057;48.554;14.454;2023-06-22T12:19:08;93910.00;;;38.80
41940;BMP180;23057;48.554;14.454;2023-06-22T12:21:38;93902.00;;;38.80
41940;BMP180;23057;48.554;14.454;2023-06-22T12:24:11;93905.00;;;38.80
41940;BMP180;23057;48.554;14.454;2023-06-22T12:26:42;93903.00;;;38.90
41940;BMP180;23057;48.554;14.454;2023-06-22T12:29:13;93901.00;;;39.10
41940;BMP180;23057;48.554;14.454;2023-06-22T12:31:43;93903.00;;;39.20
41940;BMP180;23057;48.554;14.454;2023-06-22T12:34:14;93900.00;;;39.20
41940;BMP180;23057;48.554;14.454;2023-06-22T12:36:45;93894.00;;;39.20
41940;BMP180;23057;48.554;14.454;2023-06-22T12:39:18;93893.00;;;39.30
41940;BMP180;23057;48.554;14.454;2023-06-22T12:41:49;93887.00;;;39.30
41940;BMP180;23057;48.554;14.454;2023-06-22T12:44:19;93888.00;;;39.30
41940;BMP180;23057;48.554;14.454;2023-06-22T12:46:50;93887.00;;;39.40
41940;BMP180;23057;48.554;14.454;2023-06-22T12:49:21;93884.00;;;39.40
41940;BMP180;23057;48.554;14.454;2023-06-22T12:51:51;93888.00;;;39.50
41940;BMP180;23057;48.554;14.454;2023-06-22T12:54:22;93879.00;;;39.40
41940;BMP180;23057;48.554;14.454;2023-06-22T12:56:53;93871.00;;;39.40
41940;BMP180;23057;48.554;14.454;2023-06-22T12:59:24;93875.00;;;39.50
41940;BMP180;23057;48.554;14.454;2023-06-22T13:01:55;93873.00;;;39.50
41940;BMP180;23057;48.554;14.454;2023-06-22T13:04:25;93866.00;;;39.50
41940;BMP180;23057;48.554;14.454;2023-06-22T13:06:56;93869.00;;;39.60
41940;BMP180;23057;48.554;14.454;2023-06-22T13:09:27;93846.00;;;39.50
41940;BMP180;23057;48.554;14.454;2023-06-22T13:11:57;93852.00;;;39.30
41940;BMP180;23057;48.554;14.454;2023-06-22T13:14:28;93838.00;;;39.20
41940;BMP180;23057;48.554;14.454;2023-06-22T13:16:59;93837.00;;;39.10
41940;BMP180;23057;48.554;14.454;2023-06-22T13:19:30;93844.00;;;39.10
41940;BMP180;23057;48.554;14.454;2023-06-22T13:22:03;93838.00;;;39.10
41940;BMP180;23057;48.554;14.454;2023-06-22T13:24:34;93845.00;;;39.20
41940;BMP180;23057;48.554;14.454;2023-06-22T13:27:05;93852.00;;;39.20
41940;BMP180;23057;48.554;14.454;2023-06-22T13:29:36;93855.00;;;39.10
41940;BMP180;23057;48.554;14.454;2023-06-22T13:32:06;93853.00;;;39.20
41940;BMP180;23057;48.554;14.454;2023-06-22T13:34:37;93851.00;;;39.10
41940;BMP180;23057;48.554;14.454;2023-06-22T13:37:08;93843.00;;;39.20
41940;BMP180;23057;48.554;14.454;2023-06-22T13:39:39;93847.00;;;39.30
41940;BMP180;23057;48.554;14.454;2023-06-22T13:42:09;93834.00;;;39.40
41940;BMP180;23057;48.554;14.454;2023-06-22T13:44:40;93837.00;;;39.50
41940;BMP180;23057;48.554;14.454;2023-06-22T13:47:11;93842.00;;;39.60
41940;BMP180;23057;48.554;14.454;2023-06-22T13:49:42;93836.00;;;39.60
41940;BMP180;23057;48.554;14.454;2023-06-22T13:52:12;93835.00;;;39.70
41940;BMP180;23057;48.554;14.454;2023-06-22T13:54:43;93832.00;;;39.70
41940;BMP180;23057;48.554;14.454;2023-06-22T13:57:14;93830.00;;;39.80
41940;BMP180;23057;48.554;14.454;2023-06-22T13:59:45;93829.00;;;39.80
41940;BMP180;23057;48.554;14.454;2023-06-22T14:02:16;93824.00;;;39.90
41940;BMP180;23057;48.554;14.454;2023-06-22T14:04:47;93827.00;;;40.00
41940;BMP180;23057;48.554;14.454;2023-06-22T14:07:17;93819.00;;;40.00
41940;BMP180;23057;48.554;14.454;2023-06-22T14:09:50;93817.00;;;40.00
41940;BMP180;23057;48.554;14.454;2023-06-22T14:12:21;93815.00;;;40.00
41940;BMP180;23057;48.554;14.454;2023-06-22T14:14:51;93810.00;;;40.10
41940;BMP180;23057;48.554;14.454;2023-06-22T14:17:22;93806.00;;;40.10
41940;BMP180;23057;48.554;14.454;2023-06-22T14:19:55;93811.00;;;40.10
41940;BMP180;23057;48.554;14.454;2023-06-22T14:22:26;93808.00;;;40.20